SAS12 LKPR-LRTR
Flight info
| Callsign | SAS12 |
|---|---|
| Flight time | N/A |
| Altitude | 37000 |
| Route | VOZ4B/30 VOZ DCT NELPA DCT PISAM DCT PESAT DCT BUG DCT TEGRI |
| Aircraft | B738/M-SDE2E3FGHIRWXY/LB1 |
Departure
| Time | N/A |
|---|---|
| Airport | Václav Havel Airport Prague (LKPR) |
Arrival
| Time | 2026-04-24 19:28 |
|---|---|
| Airport | Timișoara Traian Vuia International Airport (LRTR) |
| Time | Latitude | Longitude | Altitude | Speed | Heading |
|---|---|---|---|---|---|
| 2026-04-24 18:54 | 46.63804 | 19.81971 | 36999 ft | 460 kts | 107° |
| 2026-04-24 18:55 | 46.61435 | 19.90462 | 36132 ft | 449 kts | 107° |
| 2026-04-24 18:55 | 46.60261 | 19.94601 | 35915 ft | 438 kts | 107° |
| 2026-04-24 18:55 | 46.59090 | 19.98711 | 35122 ft | 442 kts | 108° |
| 2026-04-24 18:56 | 46.57901 | 20.02882 | 34166 ft | 451 kts | 108° |
| 2026-04-24 18:56 | 46.56686 | 20.07124 | 33075 ft | 459 kts | 108° |
| 2026-04-24 18:56 | 46.55445 | 20.11444 | 31969 ft | 467 kts | 109° |
| 2026-04-24 18:56 | 46.54181 | 20.15827 | 30919 ft | 473 kts | 109° |
| 2026-04-24 18:57 | 46.52899 | 20.20257 | 29877 ft | 477 kts | 110° |
| 2026-04-24 18:57 | 46.51610 | 20.24701 | 28713 ft | 480 kts | 110° |
| 2026-04-24 18:57 | 46.50453 | 20.28682 | 27654 ft | 482 kts | 110° |
| 2026-04-24 18:57 | 46.49145 | 20.33177 | 26429 ft | 486 kts | 110° |
| 2026-04-24 18:58 | 46.47824 | 20.37710 | 25218 ft | 489 kts | 110° |
| 2026-04-24 18:58 | 46.46503 | 20.42236 | 24367 ft | 484 kts | 110° |
| 2026-04-24 18:58 | 46.45197 | 20.46699 | 23634 ft | 477 kts | 110° |
| 2026-04-24 18:58 | 46.43909 | 20.51091 | 22767 ft | 470 kts | 110° |
| 2026-04-24 18:59 | 46.42636 | 20.55429 | 21903 ft | 465 kts | 110° |
| 2026-04-24 18:59 | 46.41377 | 20.59716 | 21065 ft | 459 kts | 110° |
| 2026-04-24 18:59 | 46.40131 | 20.63952 | 20243 ft | 454 kts | 110° |
| 2026-04-24 18:59 | 46.38897 | 20.68138 | 19448 ft | 450 kts | 111° |
| 2026-04-24 19:00 | 46.37676 | 20.72277 | 18679 ft | 445 kts | 111° |
| 2026-04-24 19:00 | 46.36468 | 20.76362 | 18152 ft | 435 kts | 111° |
| 2026-04-24 19:00 | 46.35298 | 20.80307 | 17892 ft | 418 kts | 111° |
| 2026-04-24 19:00 | 46.34166 | 20.84120 | 17626 ft | 410 kts | 111° |
| 2026-04-24 19:01 | 46.33042 | 20.87909 | 17369 ft | 411 kts | 111° |
| 2026-04-24 19:01 | 46.31910 | 20.91720 | 17119 ft | 412 kts | 111° |
| 2026-04-24 19:01 | 46.30785 | 20.95499 | 16857 ft | 405 kts | 111° |
| 2026-04-24 19:01 | 46.29685 | 20.99185 | 16592 ft | 394 kts | 111° |
| 2026-04-24 19:02 | 46.28973 | 21.01567 | 16423 ft | 386 kts | 111° |
| 2026-04-24 19:02 | 46.27573 | 21.06233 | 16076 ft | 371 kts | 112° |
| 2026-04-24 19:02 | 46.26175 | 21.09315 | 15800 ft | 366 kts | 133° |
| 2026-04-24 19:02 | 46.24178 | 21.11509 | 15555 ft | 358 kts | 153° |
| 2026-04-24 19:03 | 46.21886 | 21.12806 | 15332 ft | 350 kts | 161° |
| 2026-04-24 19:03 | 46.19620 | 21.13872 | 15089 ft | 343 kts | 162° |
| 2026-04-24 19:03 | 46.17314 | 21.14514 | 14815 ft | 336 kts | 179° |
| 2026-04-24 19:03 | 46.15000 | 21.14518 | 14602 ft | 329 kts | 181° |
| 2026-04-24 19:04 | 46.12733 | 21.14484 | 14362 ft | 324 kts | 181° |
| 2026-04-24 19:04 | 46.10496 | 21.14461 | 14115 ft | 319 kts | 181° |
| 2026-04-24 19:04 | 46.08291 | 21.14455 | 13874 ft | 314 kts | 181° |
| 2026-04-24 19:04 | 46.06122 | 21.14463 | 13620 ft | 310 kts | 181° |
| 2026-04-24 19:05 | 46.03974 | 21.14477 | 13354 ft | 306 kts | 181° |
| 2026-04-24 19:05 | 46.01859 | 21.14494 | 13093 ft | 302 kts | 181° |
| 2026-04-24 19:05 | 45.99767 | 21.14514 | 12830 ft | 299 kts | 179° |
| 2026-04-24 19:05 | 45.97755 | 21.15131 | 12553 ft | 297 kts | 153° |
| 2026-04-24 19:06 | 45.96147 | 21.16906 | 12313 ft | 291 kts | 128° |
| 2026-04-24 19:06 | 45.95155 | 21.19385 | 12079 ft | 285 kts | 109° |
| 2026-04-24 19:06 | 45.94467 | 21.22042 | 11845 ft | 283 kts | 107° |
| 2026-04-24 19:06 | 45.93818 | 21.24707 | 11598 ft | 282 kts | 106° |
| 2026-04-24 19:07 | 45.93173 | 21.27369 | 11348 ft | 282 kts | 106° |
| 2026-04-24 19:07 | 45.92525 | 21.30022 | 11109 ft | 281 kts | 107° |
| 2026-04-24 19:07 | 45.92093 | 21.31776 | 10953 ft | 281 kts | 107° |
| 2026-04-24 19:07 | 45.91214 | 21.35319 | 10630 ft | 281 kts | 107° |
| 2026-04-24 19:08 | 45.90556 | 21.37958 | 10393 ft | 281 kts | 107° |
| 2026-04-24 19:08 | 45.89896 | 21.40592 | 10155 ft | 280 kts | 107° |
| 2026-04-24 19:08 | 45.89235 | 21.43225 | 9921 ft | 280 kts | 107° |
| 2026-04-24 19:08 | 45.88574 | 21.45853 | 9657 ft | 280 kts | 107° |
| 2026-04-24 19:09 | 45.87913 | 21.48478 | 9398 ft | 279 kts | 107° |
| 2026-04-24 19:09 | 45.87252 | 21.51099 | 9135 ft | 279 kts | 108° |
| 2026-04-24 19:09 | 45.86593 | 21.53707 | 8870 ft | 277 kts | 108° |
| 2026-04-24 19:09 | 45.85937 | 21.56297 | 8606 ft | 276 kts | 108° |
| 2026-04-24 19:10 | 45.85284 | 21.58871 | 8345 ft | 274 kts | 108° |
| 2026-04-24 19:10 | 45.84636 | 21.61427 | 8093 ft | 271 kts | 108° |
| 2026-04-24 19:10 | 45.83994 | 21.63959 | 7837 ft | 269 kts | 108° |
| 2026-04-24 19:10 | 45.83354 | 21.66474 | 7575 ft | 267 kts | 108° |
| 2026-04-24 19:11 | 45.82718 | 21.68970 | 7338 ft | 266 kts | 109° |
| 2026-04-24 19:11 | 45.82085 | 21.71456 | 7095 ft | 264 kts | 109° |
| 2026-04-24 19:11 | 45.81457 | 21.73919 | 6845 ft | 262 kts | 109° |
| 2026-04-24 19:11 | 45.80836 | 21.76353 | 6708 ft | 256 kts | 109° |
| 2026-04-24 19:12 | 45.80233 | 21.78711 | 6578 ft | 250 kts | 109° |
| 2026-04-24 19:12 | 45.79640 | 21.81002 | 6350 ft | 248 kts | 110° |
| 2026-04-24 19:12 | 45.79035 | 21.83316 | 6092 ft | 248 kts | 110° |
| 2026-04-24 19:12 | 45.78430 | 21.85626 | 6014 ft | 248 kts | 110° |
| 2026-04-24 19:13 | 45.78022 | 21.87188 | 6006 ft | 247 kts | 110° |
| 2026-04-24 19:13 | 45.77217 | 21.90269 | 5999 ft | 247 kts | 110° |
| 2026-04-24 19:13 | 45.76622 | 21.92547 | 6007 ft | 248 kts | 110° |
| 2026-04-24 19:13 | 45.76016 | 21.94865 | 6009 ft | 249 kts | 110° |
| 2026-04-24 19:14 | 45.75413 | 21.97177 | 5939 ft | 246 kts | 110° |
| 2026-04-24 19:14 | 45.74815 | 21.99461 | 5681 ft | 245 kts | 110° |
| 2026-04-24 19:14 | 45.74215 | 22.01753 | 5387 ft | 246 kts | 110° |
| 2026-04-24 19:14 | 45.73617 | 22.04040 | 5153 ft | 245 kts | 110° |
| 2026-04-24 19:15 | 45.73022 | 22.06318 | 4912 ft | 244 kts | 110° |
| 2026-04-24 19:15 | 45.72429 | 22.08586 | 4671 ft | 243 kts | 110° |
| 2026-04-24 19:15 | 45.71839 | 22.10846 | 4422 ft | 242 kts | 110° |
| 2026-04-24 19:15 | 45.71048 | 22.12937 | 4186 ft | 241 kts | 134° |
| 2026-04-24 19:16 | 45.68028 | 22.14131 | 4017 ft | 233 kts | 199° |
| 2026-04-24 19:16 | 45.66700 | 22.12899 | 4018 ft | 228 kts | 232° |
| 2026-04-24 19:16 | 45.66068 | 22.10867 | 4019 ft | 226 kts | 264° |
| 2026-04-24 19:17 | 45.66164 | 22.08622 | 4022 ft | 229 kts | 281° |
| 2026-04-24 19:17 | 45.66493 | 22.06427 | 4003 ft | 221 kts | 284° |
| 2026-04-24 19:17 | 45.66835 | 22.04372 | 4011 ft | 204 kts | 284° |
| 2026-04-24 19:17 | 45.67152 | 22.02477 | 3990 ft | 189 kts | 284° |
| 2026-04-24 19:18 | 45.67450 | 22.00674 | 3991 ft | 185 kts | 284° |
| 2026-04-24 19:18 | 45.67742 | 21.98891 | 4000 ft | 185 kts | 284° |
| 2026-04-24 19:18 | 45.68034 | 21.97089 | 4013 ft | 187 kts | 283° |
| 2026-04-24 19:18 | 45.68325 | 21.95272 | 4008 ft | 188 kts | 283° |
| 2026-04-24 19:19 | 45.68616 | 21.93448 | 4002 ft | 188 kts | 283° |
| 2026-04-24 19:19 | 45.68906 | 21.91621 | 4006 ft | 188 kts | 283° |
| 2026-04-24 19:19 | 45.69194 | 21.89799 | 4003 ft | 188 kts | 283° |
| 2026-04-24 19:19 | 45.69480 | 21.87981 | 4000 ft | 187 kts | 283° |
| 2026-04-24 19:20 | 45.69765 | 21.86166 | 3996 ft | 186 kts | 283° |
| 2026-04-24 19:20 | 45.70043 | 21.84385 | 3864 ft | 182 kts | 283° |
| 2026-04-24 19:20 | 45.70320 | 21.82614 | 3572 ft | 183 kts | 283° |
| 2026-04-24 19:20 | 45.70597 | 21.80837 | 3295 ft | 183 kts | 283° |
| 2026-04-24 19:21 | 45.70874 | 21.79058 | 3067 ft | 184 kts | 283° |
| 2026-04-24 19:21 | 45.71155 | 21.77251 | 3032 ft | 187 kts | 283° |
| 2026-04-24 19:21 | 45.71436 | 21.75440 | 3002 ft | 185 kts | 283° |
| 2026-04-24 19:21 | 45.71713 | 21.73656 | 2987 ft | 182 kts | 283° |
| 2026-04-24 19:22 | 45.71894 | 21.72486 | 2993 ft | 182 kts | 283° |
| 2026-04-24 19:22 | 45.72261 | 21.70112 | 3004 ft | 184 kts | 283° |
| 2026-04-24 19:22 | 45.72537 | 21.68324 | 3008 ft | 184 kts | 283° |
| 2026-04-24 19:22 | 45.72879 | 21.66555 | 3003 ft | 185 kts | 289° |
| 2026-04-24 19:23 | 45.73296 | 21.64830 | 3004 ft | 179 kts | 290° |
| 2026-04-24 19:23 | 45.73699 | 21.63195 | 2979 ft | 170 kts | 290° |
| 2026-04-24 19:23 | 45.73958 | 21.62149 | 2981 ft | 167 kts | 290° |
| 2026-04-24 19:23 | 45.74481 | 21.60033 | 3008 ft | 170 kts | 290° |
| 2026-04-24 19:24 | 45.74743 | 21.58972 | 3007 ft | 171 kts | 290° |
| 2026-04-24 19:24 | 45.75141 | 21.57361 | 3004 ft | 172 kts | 290° |
| 2026-04-24 19:24 | 45.75540 | 21.55744 | 3005 ft | 173 kts | 290° |
| 2026-04-24 19:24 | 45.75942 | 21.54115 | 2960 ft | 175 kts | 290° |
| 2026-04-24 19:25 | 45.76351 | 21.52464 | 2769 ft | 176 kts | 290° |
| 2026-04-24 19:25 | 45.76755 | 21.50829 | 2542 ft | 172 kts | 290° |
| 2026-04-24 19:25 | 45.77148 | 21.49240 | 2319 ft | 167 kts | 291° |
| 2026-04-24 19:25 | 45.77529 | 21.47704 | 2088 ft | 159 kts | 291° |
| 2026-04-24 19:26 | 45.77890 | 21.46249 | 1891 ft | 152 kts | 291° |
| 2026-04-24 19:26 | 45.78235 | 21.44859 | 1695 ft | 146 kts | 291° |
| 2026-04-24 19:26 | 45.78576 | 21.43485 | 1488 ft | 148 kts | 291° |
| 2026-04-24 19:26 | 45.78919 | 21.42104 | 1310 ft | 144 kts | 290° |
| 2026-04-24 19:27 | 45.79248 | 21.40779 | 1105 ft | 138 kts | 290° |
| 2026-04-24 19:27 | 45.79558 | 21.39532 | 931 ft | 133 kts | 290° |
| 2026-04-24 19:27 | 45.79869 | 21.38283 | 734 ft | 133 kts | 290° |
| 2026-04-24 19:27 | 45.80176 | 21.37047 | 569 ft | 132 kts | 291° |
| 2026-04-24 19:28 | 45.80487 | 21.35799 | 391 ft | 133 kts | 291° |
| 2026-04-24 19:28 | 45.80771 | 21.34639 | 357 ft | 105 kts | 290° |
| 2026-04-24 19:28 | 45.80967 | 21.33853 | 353 ft | 59 kts | 289° |
| 2026-04-24 19:28 | 45.80940 | 21.33557 | 354 ft | 26 kts | 210° |
| 2026-04-24 19:29 | 45.80935 | 21.33135 | 354 ft | 23 kts | 291° |
| 2026-04-24 19:29 | 45.80989 | 21.32926 | 355 ft | 22 kts | 289° |
| 2026-04-24 19:29 | 45.81038 | 21.32722 | 351 ft | 22 kts | 289° |
| 2026-04-24 19:30 | 45.81079 | 21.32501 | 357 ft | 25 kts | 267° |
| 2026-04-24 19:30 | 45.81089 | 21.32281 | 355 ft | 20 kts | 285° |
| 2026-04-24 19:30 | 45.81129 | 21.32100 | 353 ft | 14 kts | 275° |
| 2026-04-24 19:30 | 45.81106 | 21.32028 | 355 ft | 7 kts | 227° |
| 2026-04-24 19:31 | 45.81095 | 21.32013 | 354 ft | 4 kts | 225° |
| 2026-04-24 19:31 | 45.81088 | 21.32009 | 353 ft | 0 kts | 199° |